sensor_id;sensor_type;location;lat;lon;timestamp;P1;durP1;ratioP1;P2;durP2;ratioP2
54247;SDS011;40161;39.768;2.722;2023-02-24T00:00:06;20.13;;;6.78;;
54247;SDS011;40161;39.768;2.722;2023-02-24T00:03:02;17.95;;;6.72;;
54247;SDS011;40161;39.768;2.722;2023-02-24T00:05:35;21.33;;;6.30;;
54247;SDS011;40161;39.768;2.722;2023-02-24T00:08:03;20.38;;;6.28;;
54247;SDS011;40161;39.768;2.722;2023-02-24T00:10:28;19.45;;;6.32;;
54247;SDS011;40161;39.768;2.722;2023-02-24T00:12:54;19.73;;;6.30;;
54247;SDS011;40161;39.768;2.722;2023-02-24T00:15:19;18.65;;;6.53;;
54247;SDS011;40161;39.768;2.722;2023-02-24T00:17:45;20.00;;;6.93;;
54247;SDS011;40161;39.768;2.722;2023-02-24T00:20:11;22.30;;;7.00;;
54247;SDS011;40161;39.768;2.722;2023-02-24T00:22:38;18.48;;;6.03;;
54247;SDS011;40161;39.768;2.722;2023-02-24T00:25:05;24.33;;;6.15;;
54247;SDS011;40161;39.768;2.722;2023-02-24T00:27:30;18.60;;;5.63;;
54247;SDS011;40161;39.768;2.722;2023-02-24T00:29:56;17.13;;;6.55;;
54247;SDS011;40161;39.768;2.722;2023-02-24T00:32:22;19.95;;;5.65;;
54247;SDS011;40161;39.768;2.722;2023-02-24T00:34:47;19.67;;;7.50;;
54247;SDS011;40161;39.768;2.722;2023-02-24T00:37:13;21.42;;;5.85;;
54247;SDS011;40161;39.768;2.722;2023-02-24T00:39:39;17.85;;;5.30;;
54247;SDS011;40161;39.768;2.722;2023-02-24T00:42:05;21.92;;;6.50;;
54247;SDS011;40161;39.768;2.722;2023-02-24T00:44:35;16.25;;;6.30;;
54247;SDS011;40161;39.768;2.722;2023-02-24T00:47:03;21.67;;;7.25;;
54247;SDS011;40161;39.768;2.722;2023-02-24T00:49:31;19.48;;;6.90;;
54247;SDS011;40161;39.768;2.722;2023-02-24T00:51:58;19.48;;;6.72;;
54247;SDS011;40161;39.768;2.722;2023-02-24T00:54:24;18.95;;;6.95;;
54247;SDS011;40161;39.768;2.722;2023-02-24T00:56:54;24.10;;;6.93;;
54247;SDS011;40161;39.768;2.722;2023-02-24T00:59:20;15.15;;;6.35;;
54247;SDS011;40161;39.768;2.722;2023-02-24T01:01:48;16.75;;;6.50;;
54247;SDS011;40161;39.768;2.722;2023-02-24T01:04:14;20.02;;;6.53;;
54247;SDS011;40161;39.768;2.722;2023-02-24T01:06:44;16.77;;;6.75;;
54247;SDS011;40161;39.768;2.722;2023-02-24T01:09:12;23.33;;;7.78;;
54247;SDS011;40161;39.768;2.722;2023-02-24T01:11:40;18.45;;;6.57;;
54247;SDS011;40161;39.768;2.722;2023-02-24T01:14:37;17.75;;;6.40;;
54247;SDS011;40161;39.768;2.722;2023-02-24T01:17:04;18.50;;;7.78;;
54247;SDS011;40161;39.768;2.722;2023-02-24T01:19:31;12.63;;;5.78;;
54247;SDS011;40161;39.768;2.722;2023-02-24T01:21:58;24.98;;;7.57;;
54247;SDS011;40161;39.768;2.722;2023-02-24T01:24:35;18.95;;;7.05;;
54247;SDS011;40161;39.768;2.722;2023-02-24T01:27:04;16.15;;;6.72;;
54247;SDS011;40161;39.768;2.722;2023-02-24T01:29:31;18.77;;;8.02;;
54247;SDS011;40161;39.768;2.722;2023-02-24T01:31:56;20.05;;;7.35;;
54247;SDS011;40161;39.768;2.722;2023-02-24T01:34:25;21.35;;;7.40;;
54247;SDS011;40161;39.768;2.722;2023-02-24T01:36:52;15.93;;;6.93;;
54247;SDS011;40161;39.768;2.722;2023-02-24T01:39:17;18.58;;;6.60;;
54247;SDS011;40161;39.768;2.722;2023-02-24T01:41:44;21.08;;;7.05;;
54247;SDS011;40161;39.768;2.722;2023-02-24T01:46:42;19.92;;;7.80;;
54247;SDS011;40161;39.768;2.722;2023-02-24T01:49:11;21.85;;;8.32;;
54247;SDS011;40161;39.768;2.722;2023-02-24T01:51:42;17.48;;;7.88;;
54247;SDS011;40161;39.768;2.722;2023-02-24T01:54:14;23.10;;;8.32;;
54247;SDS011;40161;39.768;2.722;2023-02-24T01:56:43;21.58;;;7.03;;
54247;SDS011;40161;39.768;2.722;2023-02-24T01:59:11;19.00;;;6.93;;
54247;SDS011;40161;39.768;2.722;2023-02-24T02:01:40;18.17;;;7.05;;
54247;SDS011;40161;39.768;2.722;2023-02-24T02:06:50;19.63;;;8.15;;
54247;SDS011;40161;39.768;2.722;2023-02-24T02:09:17;16.88;;;7.60;;
54247;SDS011;40161;39.768;2.722;2023-02-24T02:11:44;20.77;;;8.85;;
54247;SDS011;40161;39.768;2.722;2023-02-24T02:14:17;22.17;;;7.70;;
54247;SDS011;40161;39.768;2.722;2023-02-24T02:22:21;24.45;;;9.23;;
54247;SDS011;40161;39.768;2.722;2023-02-24T02:41:34;18.65;;;7.43;;
54247;SDS011;40161;39.768;2.722;2023-02-24T02:44:13;19.00;;;7.78;;
54247;SDS011;40161;39.768;2.722;2023-02-24T02:49:34;22.88;;;8.32;;
54247;SDS011;40161;39.768;2.722;2023-02-24T02:52:21;15.43;;;7.25;;
54247;SDS011;40161;39.768;2.722;2023-02-24T02:54:54;18.42;;;7.25;;
54247;SDS011;40161;39.768;2.722;2023-02-24T02:57:26;15.55;;;7.55;;
54247;SDS011;40161;39.768;2.722;2023-02-24T02:59:57;17.10;;;7.43;;
54247;SDS011;40161;39.768;2.722;2023-02-24T03:02:38;22.75;;;9.15;;
54247;SDS011;40161;39.768;2.722;2023-02-24T03:05:09;15.95;;;7.90;;
54247;SDS011;40161;39.768;2.722;2023-02-24T03:07:41;25.10;;;8.82;;
54247;SDS011;40161;39.768;2.722;2023-02-24T03:10:13;18.40;;;8.82;;
54247;SDS011;40161;39.768;2.722;2023-02-24T03:12:47;20.23;;;7.53;;
54247;SDS011;40161;39.768;2.722;2023-02-24T03:15:16;15.77;;;7.93;;
54247;SDS011;40161;39.768;2.722;2023-02-24T03:17:45;16.10;;;7.63;;
54247;SDS011;40161;39.768;2.722;2023-02-24T03:20:17;20.83;;;7.85;;
54247;SDS011;40161;39.768;2.722;2023-02-24T03:22:47;21.10;;;7.47;;
54247;SDS011;40161;39.768;2.722;2023-02-24T03:25:19;19.45;;;8.27;;
54247;SDS011;40161;39.768;2.722;2023-02-24T03:27:49;19.92;;;7.05;;
54247;SDS011;40161;39.768;2.722;2023-02-24T03:30:22;18.48;;;7.32;;
54247;SDS011;40161;39.768;2.722;2023-02-24T03:33:27;18.85;;;7.55;;
54247;SDS011;40161;39.768;2.722;2023-02-24T03:35:53;21.40;;;8.63;;
54247;SDS011;40161;39.768;2.722;2023-02-24T03:38:25;20.15;;;8.25;;
54247;SDS011;40161;39.768;2.722;2023-02-24T03:40:54;19.02;;;9.25;;
54247;SDS011;40161;39.768;2.722;2023-02-24T03:43:28;24.67;;;9.10;;
54247;SDS011;40161;39.768;2.722;2023-02-24T03:45:56;29.17;;;8.80;;
54247;SDS011;40161;39.768;2.722;2023-02-24T03:48:24;18.02;;;7.80;;
54247;SDS011;40161;39.768;2.722;2023-02-24T03:50:51;18.35;;;7.82;;
54247;SDS011;40161;39.768;2.722;2023-02-24T04:02:08;22.80;;;7.82;;
54247;SDS011;40161;39.768;2.722;2023-02-24T04:04:45;22.27;;;8.85;;
54247;SDS011;40161;39.768;2.722;2023-02-24T04:07:39;23.77;;;7.78;;
54247;SDS011;40161;39.768;2.722;2023-02-24T04:15:21;21.92;;;8.30;;
54247;SDS011;40161;39.768;2.722;2023-02-24T04:18:18;26.70;;;9.07;;
54247;SDS011;40161;39.768;2.722;2023-02-24T04:20:48;20.00;;;7.70;;
54247;SDS011;40161;39.768;2.722;2023-02-24T04:23:17;26.52;;;9.20;;
54247;SDS011;40161;39.768;2.722;2023-02-24T04:25:48;23.40;;;8.57;;
54247;SDS011;40161;39.768;2.722;2023-02-24T04:28:17;20.10;;;8.43;;
54247;SDS011;40161;39.768;2.722;2023-02-24T04:30:47;27.95;;;9.02;;
54247;SDS011;40161;39.768;2.722;2023-02-24T04:33:15;21.80;;;8.57;;
54247;SDS011;40161;39.768;2.722;2023-02-24T04:35:43;19.88;;;7.63;;
54247;SDS011;40161;39.768;2.722;2023-02-24T04:38:09;22.05;;;7.70;;
54247;SDS011;40161;39.768;2.722;2023-02-24T04:40:35;23.05;;;8.48;;
54247;SDS011;40161;39.768;2.722;2023-02-24T04:43:01;21.13;;;7.82;;
54247;SDS011;40161;39.768;2.722;2023-02-24T04:45:28;21.20;;;9.15;;
54247;SDS011;40161;39.768;2.722;2023-02-24T04:47:57;21.90;;;8.45;;
54247;SDS011;40161;39.768;2.722;2023-02-24T04:50:30;19.70;;;8.15;;
54247;SDS011;40161;39.768;2.722;2023-02-24T04:53:04;22.88;;;9.23;;
54247;SDS011;40161;39.768;2.722;2023-02-24T04:55:37;21.20;;;8.48;;
54247;SDS011;40161;39.768;2.722;2023-02-24T04:58:11;20.17;;;7.88;;
54247;SDS011;40161;39.768;2.722;2023-02-24T05:00:38;20.55;;;7.85;;
54247;SDS011;40161;39.768;2.722;2023-02-24T05:03:06;18.50;;;7.78;;
54247;SDS011;40161;39.768;2.722;2023-02-24T05:05:34;22.00;;;7.55;;
54247;SDS011;40161;39.768;2.722;2023-02-24T05:10:35;21.42;;;8.00;;
54247;SDS011;40161;39.768;2.722;2023-02-24T05:13:02;18.33;;;6.68;;
54247;SDS011;40161;39.768;2.722;2023-02-24T05:15:28;20.88;;;7.45;;
54247;SDS011;40161;39.768;2.722;2023-02-24T05:18:01;20.42;;;7.88;;
54247;SDS011;40161;39.768;2.722;2023-02-24T05:20:39;15.77;;;6.55;;
54247;SDS011;40161;39.768;2.722;2023-02-24T05:23:29;18.20;;;7.03;;
54247;SDS011;40161;39.768;2.722;2023-02-24T05:26:00;21.05;;;8.32;;
54247;SDS011;40161;39.768;2.722;2023-02-24T05:31:05;18.70;;;7.95;;
54247;SDS011;40161;39.768;2.722;2023-02-24T05:33:33;18.35;;;8.48;;
54247;SDS011;40161;39.768;2.722;2023-02-24T05:36:04;19.75;;;7.80;;
54247;SDS011;40161;39.768;2.722;2023-02-24T05:38:33;19.55;;;7.35;;
54247;SDS011;40161;39.768;2.722;2023-02-24T05:41:08;16.38;;;6.55;;
54247;SDS011;40161;39.768;2.722;2023-02-24T05:43:46;15.85;;;6.72;;
54247;SDS011;40161;39.768;2.722;2023-02-24T05:46:17;14.02;;;6.63;;
54247;SDS011;40161;39.768;2.722;2023-02-24T05:48:43;20.98;;;6.88;;
54247;SDS011;40161;39.768;2.722;2023-02-24T05:51:09;16.75;;;6.55;;
54247;SDS011;40161;39.768;2.722;2023-02-24T05:53:39;22.23;;;9.25;;
54247;SDS011;40161;39.768;2.722;2023-02-24T05:56:08;23.65;;;8.02;;
54247;SDS011;40161;39.768;2.722;2023-02-24T05:58:34;18.77;;;7.78;;
54247;SDS011;40161;39.768;2.722;2023-02-24T06:01:10;18.50;;;6.97;;
54247;SDS011;40161;39.768;2.722;2023-02-24T06:03:41;16.65;;;6.90;;
54247;SDS011;40161;39.768;2.722;2023-02-24T06:06:15;15.53;;;7.37;;
54247;SDS011;40161;39.768;2.722;2023-02-24T06:08:41;20.30;;;7.55;;
54247;SDS011;40161;39.768;2.722;2023-02-24T06:11:13;19.63;;;7.50;;
54247;SDS011;40161;39.768;2.722;2023-02-24T06:13:41;14.77;;;6.95;;
54247;SDS011;40161;39.768;2.722;2023-02-24T06:16:13;11.00;;;5.30;;
54247;SDS011;40161;39.768;2.722;2023-02-24T06:18:40;16.02;;;4.93;;
54247;SDS011;40161;39.768;2.722;2023-02-24T06:21:06;18.77;;;6.40;;
54247;SDS011;40161;39.768;2.722;2023-02-24T06:23:33;23.70;;;11.13;;
54247;SDS011;40161;39.768;2.722;2023-02-24T06:26:02;17.35;;;8.98;;
54247;SDS011;40161;39.768;2.722;2023-02-24T06:28:29;20.77;;;8.88;;
54247;SDS011;40161;39.768;2.722;2023-02-24T06:31:03;19.33;;;6.93;;
54247;SDS011;40161;39.768;2.722;2023-02-24T06:33:31;12.07;;;5.90;;
54247;SDS011;40161;39.768;2.722;2023-02-24T06:36:00;17.77;;;7.38;;
54247;SDS011;40161;39.768;2.722;2023-02-24T06:38:28;17.27;;;7.53;;
54247;SDS011;40161;39.768;2.722;2023-02-24T06:40:56;11.95;;;6.22;;
54247;SDS011;40161;39.768;2.722;2023-02-24T06:43:27;13.15;;;6.35;;
54247;SDS011;40161;39.768;2.722;2023-02-24T06:45:52;13.10;;;5.55;;
54247;SDS011;40161;39.768;2.722;2023-02-24T06:48:19;14.30;;;5.32;;
54247;SDS011;40161;39.768;2.722;2023-02-24T06:50:47;17.98;;;6.32;;
54247;SDS011;40161;39.768;2.722;2023-02-24T06:53:14;17.33;;;8.18;;
54247;SDS011;40161;39.768;2.722;2023-02-24T06:55:44;18.48;;;7.78;;
54247;SDS011;40161;39.768;2.722;2023-02-24T06:58:17;16.35;;;6.82;;
54247;SDS011;40161;39.768;2.722;2023-02-24T07:00:44;16.85;;;6.35;;
54247;SDS011;40161;39.768;2.722;2023-02-24T07:03:21;16.17;;;7.25;;
54247;SDS011;40161;39.768;2.722;2023-02-24T07:05:50;16.63;;;6.97;;
54247;SDS011;40161;39.768;2.722;2023-02-24T07:08:27;15.30;;;5.53;;
54247;SDS011;40161;39.768;2.722;2023-02-24T07:10:56;15.05;;;6.20;;
54247;SDS011;40161;39.768;2.722;2023-02-24T07:13:24;19.92;;;7.47;;
54247;SDS011;40161;39.768;2.722;2023-02-24T07:15:52;19.52;;;8.82;;
54247;SDS011;40161;39.768;2.722;2023-02-24T07:18:18;16.63;;;9.57;;
54247;SDS011;40161;39.768;2.722;2023-02-24T07:20:44;16.60;;;8.20;;
54247;SDS011;40161;39.768;2.722;2023-02-24T07:23:11;17.33;;;8.25;;
54247;SDS011;40161;39.768;2.722;2023-02-24T07:25:38;15.02;;;7.35;;
54247;SDS011;40161;39.768;2.722;2023-02-24T07:28:05;15.25;;;8.40;;
54247;SDS011;40161;39.768;2.722;2023-02-24T07:30:32;14.45;;;7.60;;
54247;SDS011;40161;39.768;2.722;2023-02-24T07:32:59;16.95;;;7.18;;
54247;SDS011;40161;39.768;2.722;2023-02-24T07:35:25;17.80;;;7.40;;
54247;SDS011;40161;39.768;2.722;2023-02-24T07:37:52;14.43;;;6.97;;
54247;SDS011;40161;39.768;2.722;2023-02-24T07:40:21;11.88;;;5.57;;
54247;SDS011;40161;39.768;2.722;2023-02-24T07:42:51;17.35;;;6.28;;
54247;SDS011;40161;39.768;2.722;2023-02-24T07:45:18;17.15;;;7.63;;
54247;SDS011;40161;39.768;2.722;2023-02-24T07:47:43;16.85;;;7.25;;
54247;SDS011;40161;39.768;2.722;2023-02-24T07:50:09;22.27;;;12.27;;
54247;SDS011;40161;39.768;2.722;2023-02-24T07:52:39;29.38;;;12.88;;
54247;SDS011;40161;39.768;2.722;2023-02-24T07:55:05;26.98;;;11.00;;
54247;SDS011;40161;39.768;2.722;2023-02-24T07:57:33;25.27;;;11.32;;
54247;SDS011;40161;39.768;2.722;2023-02-24T08:00:03;18.70;;;8.63;;
54247;SDS011;40161;39.768;2.722;2023-02-24T08:02:59;19.13;;;8.40;;
54247;SDS011;40161;39.768;2.722;2023-02-24T08:05:26;17.58;;;9.05;;
54247;SDS011;40161;39.768;2.722;2023-02-24T08:07:51;17.63;;;7.90;;
54247;SDS011;40161;39.768;2.722;2023-02-24T08:10:19;15.80;;;8.43;;
54247;SDS011;40161;39.768;2.722;2023-02-24T08:12:50;25.75;;;11.20;;
54247;SDS011;40161;39.768;2.722;2023-02-24T08:15:23;16.13;;;7.35;;
54247;SDS011;40161;39.768;2.722;2023-02-24T08:17:54;14.45;;;7.68;;
54247;SDS011;40161;39.768;2.722;2023-02-24T08:20:28;20.42;;;7.93;;
54247;SDS011;40161;39.768;2.722;2023-02-24T08:23:00;17.38;;;9.38;;
54247;SDS011;40161;39.768;2.722;2023-02-24T08:25:27;21.55;;;8.57;;
54247;SDS011;40161;39.768;2.722;2023-02-24T08:28:00;24.60;;;11.13;;
54247;SDS011;40161;39.768;2.722;2023-02-24T08:30:29;23.23;;;8.63;;
54247;SDS011;40161;39.768;2.722;2023-02-24T08:33:02;21.83;;;9.18;;
54247;SDS011;40161;39.768;2.722;2023-02-24T08:35:30;16.55;;;8.13;;
54247;SDS011;40161;39.768;2.722;2023-02-24T08:38:07;16.17;;;8.00;;
54247;SDS011;40161;39.768;2.722;2023-02-24T08:40:45;15.68;;;7.65;;
54247;SDS011;40161;39.768;2.722;2023-02-24T08:43:20;12.52;;;7.05;;
54247;SDS011;40161;39.768;2.722;2023-02-24T08:45:54;19.58;;;6.97;;
54247;SDS011;40161;39.768;2.722;2023-02-24T08:48:27;20.20;;;9.68;;
54247;SDS011;40161;39.768;2.722;2023-02-24T08:51:03;22.40;;;9.80;;
54247;SDS011;40161;39.768;2.722;2023-02-24T08:53:39;19.13;;;9.35;;
54247;SDS011;40161;39.768;2.722;2023-02-24T08:56:05;17.02;;;7.82;;
54247;SDS011;40161;39.768;2.722;2023-02-24T08:58:36;24.35;;;9.52;;
54247;SDS011;40161;39.768;2.722;2023-02-24T09:01:13;16.55;;;9.40;;
54247;SDS011;40161;39.768;2.722;2023-02-24T09:03:44;24.95;;;10.00;;
54247;SDS011;40161;39.768;2.722;2023-02-24T09:06:12;17.48;;;9.13;;
54247;SDS011;40161;39.768;2.722;2023-02-24T09:08:49;18.77;;;7.68;;
54247;SDS011;40161;39.768;2.722;2023-02-24T09:11:37;19.45;;;8.73;;
54247;SDS011;40161;39.768;2.722;2023-02-24T09:14:08;18.60;;;8.43;;
54247;SDS011;40161;39.768;2.722;2023-02-24T09:16:41;19.63;;;7.85;;
54247;SDS011;40161;39.768;2.722;2023-02-24T09:19:26;17.08;;;8.25;;
54247;SDS011;40161;39.768;2.722;2023-02-24T09:22:28;20.67;;;8.73;;
54247;SDS011;40161;39.768;2.722;2023-02-24T09:25:23;16.15;;;8.10;;
54247;SDS011;40161;39.768;2.722;2023-02-24T09:28:16;18.02;;;7.72;;
54247;SDS011;40161;39.768;2.722;2023-02-24T09:33:19;19.67;;;9.38;;
54247;SDS011;40161;39.768;2.722;2023-02-24T09:36:09;23.90;;;13.20;;
54247;SDS011;40161;39.768;2.722;2023-02-24T09:38:44;26.05;;;13.98;;
54247;SDS011;40161;39.768;2.722;2023-02-24T09:43:58;25.83;;;13.75;;
54247;SDS011;40161;39.768;2.722;2023-02-24T09:46:29;24.20;;;11.77;;
54247;SDS011;40161;39.768;2.722;2023-02-24T09:49:01;18.08;;;10.25;;
54247;SDS011;40161;39.768;2.722;2023-02-24T09:51:36;16.17;;;8.90;;
54247;SDS011;40161;39.768;2.722;2023-02-24T09:54:12;18.38;;;7.55;;
54247;SDS011;40161;39.768;2.722;2023-02-24T09:56:41;15.98;;;7.20;;
54247;SDS011;40161;39.768;2.722;2023-02-24T09:59:20;12.05;;;5.90;;
54247;SDS011;40161;39.768;2.722;2023-02-24T10:05:16;16.83;;;5.13;;
54247;SDS011;40161;39.768;2.722;2023-02-24T10:07:47;10.50;;;3.97;;
54247;SDS011;40161;39.768;2.722;2023-02-24T10:10:19;9.85;;;3.60;;
54247;SDS011;40161;39.768;2.722;2023-02-24T10:13:18;22.77;;;12.13;;
54247;SDS011;40161;39.768;2.722;2023-02-24T10:15:54;7.97;;;2.88;;
54247;SDS011;40161;39.768;2.722;2023-02-24T10:18:34;9.18;;;2.40;;
54247;SDS011;40161;39.768;2.722;2023-02-24T10:26:29;15.13;;;4.78;;
54247;SDS011;40161;39.768;2.722;2023-02-24T10:34:31;60.28;;;29.75;;
54247;SDS011;40161;39.768;2.722;2023-02-24T10:36:58;114.25;;;50.97;;
54247;SDS011;40161;39.768;2.722;2023-02-24T10:39:30;90.47;;;42.80;;
54247;SDS011;40161;39.768;2.722;2023-02-24T10:41:58;23.48;;;10.88;;
54247;SDS011;40161;39.768;2.722;2023-02-24T10:44:40;17.42;;;7.85;;
54247;SDS011;40161;39.768;2.722;2023-02-24T10:47:16;17.67;;;8.25;;
54247;SDS011;40161;39.768;2.722;2023-02-24T10:49:48;12.18;;;5.30;;
54247;SDS011;40161;39.768;2.722;2023-02-24T10:52:31;11.50;;;5.43;;
54247;SDS011;40161;39.768;2.722;2023-02-24T10:58:10;7.82;;;3.17;;
54247;SDS011;40161;39.768;2.722;2023-02-24T11:00:51;10.13;;;3.83;;
54247;SDS011;40161;39.768;2.722;2023-02-24T11:03:36;12.52;;;5.68;;
54247;SDS011;40161;39.768;2.722;2023-02-24T11:06:22;9.00;;;3.15;;
54247;SDS011;40161;39.768;2.722;2023-02-24T11:09:04;22.75;;;10.55;;
54247;SDS011;40161;39.768;2.722;2023-02-24T11:12:14;13.38;;;4.45;;
54247;SDS011;40161;39.768;2.722;2023-02-24T11:15:04;35.88;;;20.50;;
54247;SDS011;40161;39.768;2.722;2023-02-24T11:18:00;12.23;;;5.88;;
54247;SDS011;40161;39.768;2.722;2023-02-24T11:20:33;8.18;;;2.65;;
54247;SDS011;40161;39.768;2.722;2023-02-24T11:23:11;10.53;;;4.40;;
54247;SDS011;40161;39.768;2.722;2023-02-24T11:25:41;16.17;;;7.40;;
54247;SDS011;40161;39.768;2.722;2023-02-24T11:36:03;61.85;;;34.10;;
54247;SDS011;40161;39.768;2.722;2023-02-24T11:41:41;49.55;;;26.23;;
54247;SDS011;40161;39.768;2.722;2023-02-24T11:44:17;39.40;;;24.13;;
54247;SDS011;40161;39.768;2.722;2023-02-24T11:46:54;14.63;;;6.93;;
54247;SDS011;40161;39.768;2.722;2023-02-24T11:51:55;14.13;;;6.72;;
54247;SDS011;40161;39.768;2.722;2023-02-24T11:54:22;19.65;;;9.40;;
54247;SDS011;40161;39.768;2.722;2023-02-24T11:56:54;22.27;;;10.40;;
54247;SDS011;40161;39.768;2.722;2023-02-24T11:59:32;12.32;;;4.75;;
54247;SDS011;40161;39.768;2.722;2023-02-24T12:05:09;16.13;;;7.47;;
54247;SDS011;40161;39.768;2.722;2023-02-24T12:07:40;16.77;;;7.93;;
54247;SDS011;40161;39.768;2.722;2023-02-24T12:20:32;12.85;;;6.13;;
54247;SDS011;40161;39.768;2.722;2023-02-24T12:31:29;9.25;;;3.83;;
54247;SDS011;40161;39.768;2.722;2023-02-24T12:42:50;7.13;;;4.45;;
54247;SDS011;40161;39.768;2.722;2023-02-24T12:53:42;6.55;;;2.80;;
54247;SDS011;40161;39.768;2.722;2023-02-24T12:58:46;4.70;;;1.80;;
54247;SDS011;40161;39.768;2.722;2023-02-24T13:06:31;11.65;;;5.03;;
54247;SDS011;40161;39.768;2.722;2023-02-24T13:12:03;14.48;;;6.95;;
54247;SDS011;40161;39.768;2.722;2023-02-24T13:14:38;14.00;;;5.28;;
54247;SDS011;40161;39.768;2.722;2023-02-24T13:19:40;8.68;;;4.43;;
54247;SDS011;40161;39.768;2.722;2023-02-24T13:24:40;7.00;;;3.58;;
54247;SDS011;40161;39.768;2.722;2023-02-24T13:32:23;9.50;;;3.85;;
54247;SDS011;40161;39.768;2.722;2023-02-24T13:35:42;6.53;;;2.65;;
54247;SDS011;40161;39.768;2.722;2023-02-24T13:37:46;8.00;;;3.00;;
54247;SDS011;40161;39.768;2.722;2023-02-24T13:43:04;14.43;;;6.80;;
54247;SDS011;40161;39.768;2.722;2023-02-24T13:48:24;7.28;;;2.25;;
54247;SDS011;40161;39.768;2.722;2023-02-24T13:57:03;8.38;;;3.38;;
54247;SDS011;40161;39.768;2.722;2023-02-24T13:59:39;7.72;;;2.30;;
54247;SDS011;40161;39.768;2.722;2023-02-24T14:04:35;11.68;;;5.35;;
54247;SDS011;40161;39.768;2.722;2023-02-24T14:07:09;7.75;;;2.30;;
54247;SDS011;40161;39.768;2.722;2023-02-24T14:09:44;9.13;;;2.72;;
54247;SDS011;40161;39.768;2.722;2023-02-24T14:12:13;11.77;;;4.60;;
54247;SDS011;40161;39.768;2.722;2023-02-24T14:14:42;7.45;;;3.10;;
54247;SDS011;40161;39.768;2.722;2023-02-24T14:20:17;4.88;;;1.70;;
54247;SDS011;40161;39.768;2.722;2023-02-24T14:22:45;6.68;;;2.25;;
54247;SDS011;40161;39.768;2.722;2023-02-24T14:25:17;4.97;;;1.58;;
54247;SDS011;40161;39.768;2.722;2023-02-24T14:27:44;5.03;;;1.50;;
54247;SDS011;40161;39.768;2.722;2023-02-24T14:33:00;11.93;;;6.18;;
54247;SDS011;40161;39.768;2.722;2023-02-24T14:37:56;8.65;;;3.65;;
54247;SDS011;40161;39.768;2.722;2023-02-24T14:40:22;10.45;;;4.13;;
54247;SDS011;40161;39.768;2.722;2023-02-24T14:42:49;18.50;;;8.65;;
54247;SDS011;40161;39.768;2.722;2023-02-24T14:45:20;14.88;;;5.65;;
54247;SDS011;40161;39.768;2.722;2023-02-24T14:47:52;5.72;;;2.10;;
54247;SDS011;40161;39.768;2.722;2023-02-24T14:50:20;13.27;;;6.55;;
54247;SDS011;40161;39.768;2.722;2023-02-24T14:53:04;7.55;;;3.05;;
54247;SDS011;40161;39.768;2.722;2023-02-24T14:55:35;9.80;;;3.45;;
54247;SDS011;40161;39.768;2.722;2023-02-24T14:58:05;11.32;;;4.78;;
54247;SDS011;40161;39.768;2.722;2023-02-24T15:03:42;9.90;;;3.53;;
54247;SDS011;40161;39.768;2.722;2023-02-24T15:06:14;12.85;;;4.82;;
54247;SDS011;40161;39.768;2.722;2023-02-24T15:08:59;8.23;;;2.85;;
54247;SDS011;40161;39.768;2.722;2023-02-24T15:11:28;14.52;;;5.57;;
54247;SDS011;40161;39.768;2.722;2023-02-24T15:13:59;18.40;;;6.78;;
54247;SDS011;40161;39.768;2.722;2023-02-24T15:21:52;12.77;;;4.88;;
54247;SDS011;40161;39.768;2.722;2023-02-24T15:24:19;9.35;;;2.33;;
54247;SDS011;40161;39.768;2.722;2023-02-24T15:29:25;7.78;;;2.40;;
54247;SDS011;40161;39.768;2.722;2023-02-24T15:31:53;7.93;;;3.15;;
54247;SDS011;40161;39.768;2.722;2023-02-24T15:34:21;13.40;;;5.43;;
54247;SDS011;40161;39.768;2.722;2023-02-24T15:36:54;5.57;;;2.03;;
54247;SDS011;40161;39.768;2.722;2023-02-24T15:39:22;5.40;;;2.50;;
54247;SDS011;40161;39.768;2.722;2023-02-24T15:41:51;5.35;;;1.40;;
54247;SDS011;40161;39.768;2.722;2023-02-24T15:44:33;4.60;;;1.42;;
54247;SDS011;40161;39.768;2.722;2023-02-24T15:47:00;3.88;;;1.23;;
54247;SDS011;40161;39.768;2.722;2023-02-24T15:49:43;6.75;;;1.80;;
54247;SDS011;40161;39.768;2.722;2023-02-24T15:52:09;6.15;;;1.75;;
54247;SDS011;40161;39.768;2.722;2023-02-24T15:54:35;6.60;;;1.80;;
54247;SDS011;40161;39.768;2.722;2023-02-24T15:57:03;5.50;;;1.80;;
54247;SDS011;40161;39.768;2.722;2023-02-24T15:59:31;5.78;;;3.08;;
54247;SDS011;40161;39.768;2.722;2023-02-24T16:01:57;8.15;;;2.10;;
54247;SDS011;40161;39.768;2.722;2023-02-24T16:04:23;6.65;;;2.83;;
54247;SDS011;40161;39.768;2.722;2023-02-24T16:06:51;11.82;;;5.03;;
54247;SDS011;40161;39.768;2.722;2023-02-24T16:09:20;13.60;;;6.10;;
54247;SDS011;40161;39.768;2.722;2023-02-24T16:11:56;13.93;;;5.55;;
54247;SDS011;40161;39.768;2.722;2023-02-24T16:14:24;10.05;;;4.50;;
54247;SDS011;40161;39.768;2.722;2023-02-24T16:16:50;6.32;;;3.25;;
54247;SDS011;40161;39.768;2.722;2023-02-24T16:19:15;9.95;;;4.78;;
54247;SDS011;40161;39.768;2.722;2023-02-24T16:21:41;12.63;;;5.80;;
54247;SDS011;40161;39.768;2.722;2023-02-24T16:24:07;8.23;;;3.65;;
54247;SDS011;40161;39.768;2.722;2023-02-24T16:26:36;8.23;;;3.10;;
54247;SDS011;40161;39.768;2.722;2023-02-24T16:29:04;7.07;;;2.72;;
54247;SDS011;40161;39.768;2.722;2023-02-24T16:31:35;4.20;;;1.60;;
54247;SDS011;40161;39.768;2.722;2023-02-24T16:34:02;10.52;;;2.28;;
54247;SDS011;40161;39.768;2.722;2023-02-24T16:36:28;5.55;;;2.10;;
54247;SDS011;40161;39.768;2.722;2023-02-24T16:38:54;6.90;;;2.20;;
54247;SDS011;40161;39.768;2.722;2023-02-24T16:41:20;6.25;;;3.00;;
54247;SDS011;40161;39.768;2.722;2023-02-24T16:43:46;8.65;;;3.90;;
54247;SDS011;40161;39.768;2.722;2023-02-24T16:46:12;5.45;;;2.30;;
54247;SDS011;40161;39.768;2.722;2023-02-24T16:48:43;5.85;;;2.45;;
54247;SDS011;40161;39.768;2.722;2023-02-24T16:51:11;6.20;;;3.38;;
54247;SDS011;40161;39.768;2.722;2023-02-24T16:53:36;5.97;;;3.08;;
54247;SDS011;40161;39.768;2.722;2023-02-24T16:56:02;5.65;;;2.25;;
54247;SDS011;40161;39.768;2.722;2023-02-24T16:58:31;8.52;;;2.78;;
54247;SDS011;40161;39.768;2.722;2023-02-24T17:00:58;7.70;;;2.30;;
54247;SDS011;40161;39.768;2.722;2023-02-24T17:05:55;6.82;;;2.75;;
54247;SDS011;40161;39.768;2.722;2023-02-24T17:08:21;5.22;;;2.35;;
54247;SDS011;40161;39.768;2.722;2023-02-24T17:10:47;9.50;;;4.45;;
54247;SDS011;40161;39.768;2.722;2023-02-24T17:13:15;7.10;;;3.63;;
54247;SDS011;40161;39.768;2.722;2023-02-24T17:15:42;6.63;;;2.63;;
54247;SDS011;40161;39.768;2.722;2023-02-24T17:18:09;8.18;;;3.45;;
54247;SDS011;40161;39.768;2.722;2023-02-24T17:20:35;8.57;;;3.95;;
54247;SDS011;40161;39.768;2.722;2023-02-24T17:23:02;10.85;;;4.55;;
54247;SDS011;40161;39.768;2.722;2023-02-24T17:25:28;11.35;;;5.63;;
54247;SDS011;40161;39.768;2.722;2023-02-24T17:27:55;6.32;;;3.78;;
54247;SDS011;40161;39.768;2.722;2023-02-24T17:30:28;7.10;;;4.28;;
54247;SDS011;40161;39.768;2.722;2023-02-24T17:32:56;10.32;;;5.55;;
54247;SDS011;40161;39.768;2.722;2023-02-24T17:35:22;8.35;;;3.97;;
54247;SDS011;40161;39.768;2.722;2023-02-24T17:37:47;7.68;;;4.25;;
54247;SDS011;40161;39.768;2.722;2023-02-24T17:40:13;6.13;;;3.72;;
54247;SDS011;40161;39.768;2.722;2023-02-24T17:42:39;7.93;;;5.05;;
54247;SDS011;40161;39.768;2.722;2023-02-24T17:45:05;7.05;;;4.25;;
54247;SDS011;40161;39.768;2.722;2023-02-24T17:47:32;12.98;;;6.32;;
54247;SDS011;40161;39.768;2.722;2023-02-24T17:49:58;8.27;;;2.88;;
54247;SDS011;40161;39.768;2.722;2023-02-24T17:52:24;7.65;;;3.55;;
54247;SDS011;40161;39.768;2.722;2023-02-24T17:54:49;6.85;;;3.00;;
54247;SDS011;40161;39.768;2.722;2023-02-24T17:57:15;5.43;;;3.50;;
54247;SDS011;40161;39.768;2.722;2023-02-24T17:59:44;6.88;;;2.53;;